Terminal Aerodrome Forecast
Issued by NWS

Home | Current Version | Previous Version | Text Only | Print | Product List | Glossary On
Versions: 1 2 3 4 5 6 7 8 9 10 11 12 13 14 15 16 17 18 19 20 21 22
076
FTUS46 KLOX 190553
TAFOXR
TAF
KOXR 190553Z 1906/2006 28005KT 6SM BR BKN008
      TEMPO 1906/1908 SCT008
     FM191300 VRB03KT P6SM OVC012
     FM191730 26005KT P6SM SCT012
     FM192000 27012KT P6SM SKC
     FM200300 28008KT 6SM BR BKN007=

USA.gov is the U.S. government's official web portal to all federal, state and local government web resources and services.